sensor_id;sensor_type;location;lat;lon;timestamp;pressure;altitude;pressure_sealevel;temperature;humidity
25664;BME280;13522;50.018;20.014;2023-05-07T00:00:06;98919.64;;;12.21;100.00
25664;BME280;13522;50.018;20.014;2023-05-07T00:03:23;98921.95;;;12.06;100.00
25664;BME280;13522;50.018;20.014;2023-05-07T00:06:36;98930.53;;;12.00;100.00
25664;BME280;13522;50.018;20.014;2023-05-07T00:15:48;98926.37;;;11.98;100.00
25664;BME280;13522;50.018;20.014;2023-05-07T00:19:01;98936.22;;;11.88;100.00
25664;BME280;13522;50.018;20.014;2023-05-07T00:22:13;98934.86;;;11.65;100.00
25664;BME280;13522;50.018;20.014;2023-05-07T00:25:25;98932.39;;;11.54;100.00
25664;BME280;13522;50.018;20.014;2023-05-07T00:28:38;98942.77;;;11.47;100.00
25664;BME280;13522;50.018;20.014;2023-05-07T00:31:52;98945.88;;;11.43;100.00
25664;BME280;13522;50.018;20.014;2023-05-07T00:35:06;98948.81;;;11.40;100.00
25664;BME280;13522;50.018;20.014;2023-05-07T00:38:19;98941.14;;;11.37;100.00
25664;BME280;13522;50.018;20.014;2023-05-07T00:41:31;98938.17;;;11.40;100.00
25664;BME280;13522;50.018;20.014;2023-05-07T00:44:43;98949.53;;;11.32;100.00
25664;BME280;13522;50.018;20.014;2023-05-07T00:47:57;98954.03;;;11.22;100.00
25664;BME280;13522;50.018;20.014;2023-05-07T00:51:11;98951.22;;;11.23;100.00
25664;BME280;13522;50.018;20.014;2023-05-07T00:54:23;98961.16;;;11.21;100.00
25664;BME280;13522;50.018;20.014;2023-05-07T00:57:37;98959.50;;;11.20;100.00
25664;BME280;13522;50.018;20.014;2023-05-07T01:00:51;98966.23;;;11.15;100.00
25664;BME280;13522;50.018;20.014;2023-05-07T01:04:04;98962.98;;;11.11;100.00
25664;BME280;13522;50.018;20.014;2023-05-07T01:07:17;98962.44;;;11.08;100.00
25664;BME280;13522;50.018;20.014;2023-05-07T01:10:29;98963.70;;;11.04;100.00
25664;BME280;13522;50.018;20.014;2023-05-07T01:13:43;98962.45;;;10.98;100.00
25664;BME280;13522;50.018;20.014;2023-05-07T01:16:55;98961.61;;;10.98;100.00
25664;BME280;13522;50.018;20.014;2023-05-07T01:20:10;98964.81;;;11.01;100.00
25664;BME280;13522;50.018;20.014;2023-05-07T01:23:24;98970.83;;;11.03;100.00
25664;BME280;13522;50.018;20.014;2023-05-07T01:26:37;98960.50;;;11.00;100.00
25664;BME280;13522;50.018;20.014;2023-05-07T01:29:51;98964.56;;;10.95;100.00
25664;BME280;13522;50.018;20.014;2023-05-07T01:33:06;98963.86;;;10.93;100.00
25664;BME280;13522;50.018;20.014;2023-05-07T01:36:21;98972.80;;;10.92;100.00
25664;BME280;13522;50.018;20.014;2023-05-07T01:39:35;98980.63;;;10.84;100.00
25664;BME280;13522;50.018;20.014;2023-05-07T01:42:49;98974.76;;;10.80;100.00
25664;BME280;13522;50.018;20.014;2023-05-07T01:46:03;98978.97;;;10.73;100.00
25664;BME280;13522;50.018;20.014;2023-05-07T01:49:16;98983.69;;;10.70;100.00
25664;BME280;13522;50.018;20.014;2023-05-07T01:52:28;98976.97;;;10.56;100.00
25664;BME280;13522;50.018;20.014;2023-05-07T01:55:41;98979.77;;;10.55;100.00
25664;BME280;13522;50.018;20.014;2023-05-07T01:58:54;98978.66;;;10.57;100.00
25664;BME280;13522;50.018;20.014;2023-05-07T02:02:07;98982.28;;;10.56;100.00
25664;BME280;13522;50.018;20.014;2023-05-07T02:05:21;98987.33;;;10.50;100.00
25664;BME280;13522;50.018;20.014;2023-05-07T02:08:35;98990.64;;;10.42;100.00
25664;BME280;13522;50.018;20.014;2023-05-07T02:11:48;98988.98;;;10.41;100.00
25664;BME280;13522;50.018;20.014;2023-05-07T02:15:02;98985.88;;;10.36;100.00
25664;BME280;13522;50.018;20.014;2023-05-07T02:18:16;98993.98;;;10.34;100.00
25664;BME280;13522;50.018;20.014;2023-05-07T02:21:29;98986.70;;;10.27;100.00
25664;BME280;13522;50.018;20.014;2023-05-07T02:24:41;98990.05;;;10.19;100.00
25664;BME280;13522;50.018;20.014;2023-05-07T02:27:53;98994.50;;;10.19;100.00
25664;BME280;13522;50.018;20.014;2023-05-07T02:31:13;98998.55;;;10.13;100.00
25664;BME280;13522;50.018;20.014;2023-05-07T02:34:26;98994.98;;;10.03;100.00
25664;BME280;13522;50.018;20.014;2023-05-07T02:37:38;99004.19;;;9.99;100.00
25664;BME280;13522;50.018;20.014;2023-05-07T02:40:51;98998.03;;;9.99;100.00
25664;BME280;13522;50.018;20.014;2023-05-07T02:44:04;99000.86;;;10.07;100.00
25664;BME280;13522;50.018;20.014;2023-05-07T02:47:16;98996.99;;;10.11;100.00
25664;BME280;13522;50.018;20.014;2023-05-07T02:50:29;99008.11;;;10.05;100.00
25664;BME280;13522;50.018;20.014;2023-05-07T02:53:41;99004.36;;;10.07;100.00
25664;BME280;13522;50.018;20.014;2023-05-07T02:56:53;99006.98;;;9.98;100.00
25664;BME280;13522;50.018;20.014;2023-05-07T03:00:18;99010.34;;;10.00;100.00
25664;BME280;13522;50.018;20.014;2023-05-07T03:03:39;99012.00;;;10.01;100.00
25664;BME280;13522;50.018;20.014;2023-05-07T03:06:52;99015.89;;;9.97;100.00
25664;BME280;13522;50.018;20.014;2023-05-07T03:10:05;99003.30;;;9.89;100.00
25664;BME280;13522;50.018;20.014;2023-05-07T03:13:18;99023.42;;;9.92;100.00
25664;BME280;13522;50.018;20.014;2023-05-07T03:16:31;99025.58;;;9.77;100.00
25664;BME280;13522;50.018;20.014;2023-05-07T03:19:43;99014.65;;;9.71;100.00
25664;BME280;13522;50.018;20.014;2023-05-07T03:22:55;99034.38;;;9.78;100.00
25664;BME280;13522;50.018;20.014;2023-05-07T03:26:08;99034.91;;;9.72;100.00
25664;BME280;13522;50.018;20.014;2023-05-07T03:29:21;99037.80;;;9.69;100.00
25664;BME280;13522;50.018;20.014;2023-05-07T03:32:33;99039.45;;;9.60;100.00
25664;BME280;13522;50.018;20.014;2023-05-07T03:35:48;99048.12;;;9.62;100.00
25664;BME280;13522;50.018;20.014;2023-05-07T03:39:02;99055.36;;;9.60;100.00
25664;BME280;13522;50.018;20.014;2023-05-07T03:42:16;99056.02;;;9.52;100.00
25664;BME280;13522;50.018;20.014;2023-05-07T03:45:30;99058.71;;;9.41;100.00
25664;BME280;13522;50.018;20.014;2023-05-07T03:48:44;99059.49;;;9.32;100.00
25664;BME280;13522;50.018;20.014;2023-05-07T03:51:57;99066.53;;;9.43;100.00
25664;BME280;13522;50.018;20.014;2023-05-07T03:55:11;99073.59;;;9.33;100.00
25664;BME280;13522;50.018;20.014;2023-05-07T03:58:25;99078.42;;;9.28;100.00
25664;BME280;13522;50.018;20.014;2023-05-07T04:01:40;99081.27;;;9.36;100.00
25664;BME280;13522;50.018;20.014;2023-05-07T04:04:54;99080.30;;;9.37;100.00
25664;BME280;13522;50.018;20.014;2023-05-07T04:08:07;99076.31;;;9.42;100.00
25664;BME280;13522;50.018;20.014;2023-05-07T04:11:21;99075.59;;;9.40;100.00
25664;BME280;13522;50.018;20.014;2023-05-07T04:14:35;99086.20;;;9.40;100.00
25664;BME280;13522;50.018;20.014;2023-05-07T04:17:48;99083.08;;;9.35;100.00
25664;BME280;13522;50.018;20.014;2023-05-07T04:21:01;99089.60;;;9.31;100.00
25664;BME280;13522;50.018;20.014;2023-05-07T04:24:14;99092.52;;;9.28;100.00
25664;BME280;13522;50.018;20.014;2023-05-07T04:27:27;99094.59;;;9.25;100.00
25664;BME280;13522;50.018;20.014;2023-05-07T04:30:39;99101.19;;;9.30;100.00
25664;BME280;13522;50.018;20.014;2023-05-07T04:33:52;99102.54;;;9.25;100.00
25664;BME280;13522;50.018;20.014;2023-05-07T04:37:05;99103.86;;;9.19;100.00
25664;BME280;13522;50.018;20.014;2023-05-07T04:40:18;99118.33;;;9.15;100.00
25664;BME280;13522;50.018;20.014;2023-05-07T04:43:30;99113.75;;;9.17;100.00
25664;BME280;13522;50.018;20.014;2023-05-07T04:46:48;99126.59;;;9.01;100.00
25664;BME280;13522;50.018;20.014;2023-05-07T04:50:01;99124.39;;;9.06;100.00
25664;BME280;13522;50.018;20.014;2023-05-07T04:53:15;99137.19;;;9.01;100.00
25664;BME280;13522;50.018;20.014;2023-05-07T04:56:30;99130.91;;;9.02;100.00
25664;BME280;13522;50.018;20.014;2023-05-07T04:59:42;99131.13;;;9.10;100.00
25664;BME280;13522;50.018;20.014;2023-05-07T05:02:54;99141.95;;;9.07;100.00
25664;BME280;13522;50.018;20.014;2023-05-07T05:06:07;99143.56;;;8.99;100.00
25664;BME280;13522;50.018;20.014;2023-05-07T05:09:20;99145.37;;;8.98;100.00
25664;BME280;13522;50.018;20.014;2023-05-07T05:12:32;99150.92;;;8.95;100.00
25664;BME280;13522;50.018;20.014;2023-05-07T05:15:45;99160.09;;;8.91;100.00
25664;BME280;13522;50.018;20.014;2023-05-07T05:18:59;99160.19;;;8.90;100.00
25664;BME280;13522;50.018;20.014;2023-05-07T05:22:13;99163.45;;;8.93;100.00
25664;BME280;13522;50.018;20.014;2023-05-07T05:25:27;99168.98;;;8.90;100.00
25664;BME280;13522;50.018;20.014;2023-05-07T05:28:40;99170.55;;;8.93;100.00
25664;BME280;13522;50.018;20.014;2023-05-07T05:31:52;99171.89;;;8.87;100.00
25664;BME280;13522;50.018;20.014;2023-05-07T05:35:08;99176.20;;;8.88;100.00
25664;BME280;13522;50.018;20.014;2023-05-07T05:38:21;99181.50;;;8.88;100.00
25664;BME280;13522;50.018;20.014;2023-05-07T05:41:34;99186.08;;;8.86;100.00
25664;BME280;13522;50.018;20.014;2023-05-07T05:44:47;99195.95;;;8.84;100.00
25664;BME280;13522;50.018;20.014;2023-05-07T05:47:59;99193.79;;;8.78;100.00
25664;BME280;13522;50.018;20.014;2023-05-07T05:51:11;99200.42;;;8.72;100.00
25664;BME280;13522;50.018;20.014;2023-05-07T05:54:24;99206.92;;;8.68;100.00
25664;BME280;13522;50.018;20.014;2023-05-07T05:57:36;99214.49;;;8.62;100.00
25664;BME280;13522;50.018;20.014;2023-05-07T06:00:49;99211.13;;;8.60;100.00
25664;BME280;13522;50.018;20.014;2023-05-07T06:04:04;99216.67;;;8.57;100.00
25664;BME280;13522;50.018;20.014;2023-05-07T06:07:16;99222.91;;;8.45;100.00
25664;BME280;13522;50.018;20.014;2023-05-07T06:10:29;99228.20;;;8.45;100.00
25664;BME280;13522;50.018;20.014;2023-05-07T06:13:43;99235.42;;;8.43;100.00
25664;BME280;13522;50.018;20.014;2023-05-07T06:16:55;99240.59;;;8.44;100.00
25664;BME280;13522;50.018;20.014;2023-05-07T06:20:10;99236.88;;;8.36;100.00
25664;BME280;13522;50.018;20.014;2023-05-07T06:23:23;99238.28;;;8.29;100.00
25664;BME280;13522;50.018;20.014;2023-05-07T06:26:35;99238.23;;;8.18;100.00
25664;BME280;13522;50.018;20.014;2023-05-07T06:29:49;99241.91;;;8.28;100.00
25664;BME280;13522;50.018;20.014;2023-05-07T06:33:01;99248.27;;;8.25;100.00
25664;BME280;13522;50.018;20.014;2023-05-07T06:36:14;99245.02;;;8.33;100.00
25664;BME280;13522;50.018;20.014;2023-05-07T06:39:27;99242.50;;;8.31;100.00
25664;BME280;13522;50.018;20.014;2023-05-07T06:42:39;99243.83;;;8.26;100.00
25664;BME280;13522;50.018;20.014;2023-05-07T06:45:55;99252.02;;;8.34;100.00
25664;BME280;13522;50.018;20.014;2023-05-07T06:49:08;99252.84;;;8.34;100.00
25664;BME280;13522;50.018;20.014;2023-05-07T06:52:21;99253.44;;;8.38;100.00
25664;BME280;13522;50.018;20.014;2023-05-07T06:55:33;99264.03;;;8.38;100.00
25664;BME280;13522;50.018;20.014;2023-05-07T06:58:45;99261.50;;;8.36;100.00
25664;BME280;13522;50.018;20.014;2023-05-07T07:01:59;99262.36;;;8.37;100.00
25664;BME280;13522;50.018;20.014;2023-05-07T07:05:12;99261.55;;;8.47;100.00
25664;BME280;13522;50.018;20.014;2023-05-07T07:08:24;99264.66;;;8.41;100.00
25664;BME280;13522;50.018;20.014;2023-05-07T07:11:37;99279.22;;;8.47;100.00
25664;BME280;13522;50.018;20.014;2023-05-07T07:14:50;99279.95;;;8.49;100.00
25664;BME280;13522;50.018;20.014;2023-05-07T07:18:03;99283.06;;;8.43;100.00
25664;BME280;13522;50.018;20.014;2023-05-07T07:21:16;99285.70;;;8.32;100.00
25664;BME280;13522;50.018;20.014;2023-05-07T07:24:29;99286.17;;;8.37;100.00
25664;BME280;13522;50.018;20.014;2023-05-07T07:27:43;99291.95;;;8.42;100.00
25664;BME280;13522;50.018;20.014;2023-05-07T07:30:55;99299.66;;;8.34;100.00
25664;BME280;13522;50.018;20.014;2023-05-07T07:34:09;99299.89;;;8.42;100.00
25664;BME280;13522;50.018;20.014;2023-05-07T07:37:22;99302.70;;;8.51;100.00
25664;BME280;13522;50.018;20.014;2023-05-07T07:40:35;99310.26;;;8.45;100.00
25664;BME280;13522;50.018;20.014;2023-05-07T07:43:50;99316.55;;;8.55;100.00
25664;BME280;13522;50.018;20.014;2023-05-07T07:47:03;99317.73;;;8.51;100.00
25664;BME280;13522;50.018;20.014;2023-05-07T07:50:17;99319.41;;;8.52;100.00
25664;BME280;13522;50.018;20.014;2023-05-07T07:53:32;99324.36;;;8.56;100.00
25664;BME280;13522;50.018;20.014;2023-05-07T07:56:45;99322.52;;;8.46;100.00
25664;BME280;13522;50.018;20.014;2023-05-07T07:59:57;99326.62;;;8.50;100.00
25664;BME280;13522;50.018;20.014;2023-05-07T08:03:13;99329.38;;;8.37;100.00
25664;BME280;13522;50.018;20.014;2023-05-07T08:06:34;99330.89;;;8.29;100.00
25664;BME280;13522;50.018;20.014;2023-05-07T08:09:47;99333.55;;;8.29;100.00
25664;BME280;13522;50.018;20.014;2023-05-07T08:13:01;99340.08;;;8.36;100.00
25664;BME280;13522;50.018;20.014;2023-05-07T08:16:15;99348.02;;;8.36;100.00
25664;BME280;13522;50.018;20.014;2023-05-07T08:19:31;99342.36;;;8.40;100.00
25664;BME280;13522;50.018;20.014;2023-05-07T08:22:45;99346.59;;;8.43;100.00
25664;BME280;13522;50.018;20.014;2023-05-07T08:25:58;99361.25;;;8.36;100.00
25664;BME280;13522;50.018;20.014;2023-05-07T08:29:11;99359.16;;;8.28;100.00
25664;BME280;13522;50.018;20.014;2023-05-07T08:32:25;99347.32;;;8.21;100.00
25664;BME280;13522;50.018;20.014;2023-05-07T08:35:37;99373.36;;;8.27;100.00
25664;BME280;13522;50.018;20.014;2023-05-07T08:38:51;99371.98;;;8.22;100.00
25664;BME280;13522;50.018;20.014;2023-05-07T08:42:05;99374.94;;;8.30;100.00
25664;BME280;13522;50.018;20.014;2023-05-07T08:45:20;99389.41;;;8.24;100.00
25664;BME280;13522;50.018;20.014;2023-05-07T08:48:34;99382.50;;;8.11;100.00
25664;BME280;13522;50.018;20.014;2023-05-07T08:51:49;99386.48;;;8.16;100.00
25664;BME280;13522;50.018;20.014;2023-05-07T08:55:04;99396.86;;;8.19;100.00
25664;BME280;13522;50.018;20.014;2023-05-07T08:58:22;99396.32;;;8.27;100.00
25664;BME280;13522;50.018;20.014;2023-05-07T09:01:35;99394.83;;;8.23;100.00
25664;BME280;13522;50.018;20.014;2023-05-07T09:04:49;99400.36;;;8.20;100.00
25664;BME280;13522;50.018;20.014;2023-05-07T09:08:04;99396.25;;;8.16;100.00
25664;BME280;13522;50.018;20.014;2023-05-07T09:11:19;99402.89;;;8.21;100.00
25664;BME280;13522;50.018;20.014;2023-05-07T09:14:33;99408.05;;;8.23;100.00
25664;BME280;13522;50.018;20.014;2023-05-07T09:17:46;99403.53;;;8.25;100.00
25664;BME280;13522;50.018;20.014;2023-05-07T09:20:58;99412.13;;;8.16;100.00
25664;BME280;13522;50.018;20.014;2023-05-07T09:24:10;99421.53;;;8.20;100.00
25664;BME280;13522;50.018;20.014;2023-05-07T09:27:25;99422.78;;;8.27;100.00
25664;BME280;13522;50.018;20.014;2023-05-07T09:30:38;99432.19;;;8.31;100.00
25664;BME280;13522;50.018;20.014;2023-05-07T09:33:51;99431.70;;;8.26;100.00
25664;BME280;13522;50.018;20.014;2023-05-07T09:37:06;99437.05;;;8.24;100.00
25664;BME280;13522;50.018;20.014;2023-05-07T09:40:26;99429.55;;;8.18;100.00
25664;BME280;13522;50.018;20.014;2023-05-07T09:43:41;99437.92;;;8.25;100.00
25664;BME280;13522;50.018;20.014;2023-05-07T09:46:56;99442.61;;;8.09;100.00
25664;BME280;13522;50.018;20.014;2023-05-07T09:50:14;99444.61;;;8.18;100.00
25664;BME280;13522;50.018;20.014;2023-05-07T09:53:27;99450.95;;;8.15;100.00
25664;BME280;13522;50.018;20.014;2023-05-07T09:56:42;99456.13;;;8.17;100.00
25664;BME280;13522;50.018;20.014;2023-05-07T09:59:57;99457.92;;;8.16;100.00
25664;BME280;13522;50.018;20.014;2023-05-07T10:03:13;99458.89;;;8.28;100.00
25664;BME280;13522;50.018;20.014;2023-05-07T10:06:34;99458.66;;;8.31;100.00
25664;BME280;13522;50.018;20.014;2023-05-07T10:09:49;99458.89;;;8.28;100.00
25664;BME280;13522;50.018;20.014;2023-05-07T10:13:04;99458.56;;;8.20;100.00
25664;BME280;13522;50.018;20.014;2023-05-07T10:16:19;99466.71;;;8.29;100.00
25664;BME280;13522;50.018;20.014;2023-05-07T10:19:35;99469.03;;;8.34;100.00
25664;BME280;13522;50.018;20.014;2023-05-07T10:22:49;99472.13;;;8.28;100.00
25664;BME280;13522;50.018;20.014;2023-05-07T10:26:06;99462.48;;;8.27;100.00
25664;BME280;13522;50.018;20.014;2023-05-07T10:29:28;99472.62;;;8.33;100.00
25664;BME280;13522;50.018;20.014;2023-05-07T10:32:47;99473.06;;;8.27;100.00
25664;BME280;13522;50.018;20.014;2023-05-07T10:36:04;99479.38;;;8.24;100.00
25664;BME280;13522;50.018;20.014;2023-05-07T10:39:17;99487.44;;;8.23;100.00
25664;BME280;13522;50.018;20.014;2023-05-07T10:42:32;99487.26;;;8.13;100.00
25664;BME280;13522;50.018;20.014;2023-05-07T10:45:45;99488.94;;;8.14;100.00
25664;BME280;13522;50.018;20.014;2023-05-07T10:49:13;99497.08;;;8.24;100.00
25664;BME280;13522;50.018;20.014;2023-05-07T10:52:32;99495.26;;;8.24;100.00
25664;BME280;13522;50.018;20.014;2023-05-07T10:55:48;99497.50;;;8.30;100.00
25664;BME280;13522;50.018;20.014;2023-05-07T10:59:35;99493.58;;;8.23;100.00
25664;BME280;13522;50.018;20.014;2023-05-07T11:03:08;99499.73;;;8.24;100.00
25664;BME280;13522;50.018;20.014;2023-05-07T11:06:23;99511.81;;;8.28;100.00
25664;BME280;13522;50.018;20.014;2023-05-07T11:09:59;99503.96;;;8.26;100.00
25664;BME280;13522;50.018;20.014;2023-05-07T11:17:04;99500.26;;;8.29;100.00
25664;BME280;13522;50.018;20.014;2023-05-07T11:20:18;99508.61;;;8.23;100.00
25664;BME280;13522;50.018;20.014;2023-05-07T11:27:27;99506.08;;;8.34;100.00
25664;BME280;13522;50.018;20.014;2023-05-07T11:30:39;99515.46;;;8.38;100.00
25664;BME280;13522;50.018;20.014;2023-05-07T11:33:55;99513.39;;;8.54;100.00
25664;BME280;13522;50.018;20.014;2023-05-07T11:37:09;99515.09;;;8.55;100.00
25664;BME280;13522;50.018;20.014;2023-05-07T11:40:24;99523.33;;;8.63;100.00
25664;BME280;13522;50.018;20.014;2023-05-07T11:43:36;99514.13;;;8.56;100.00
25664;BME280;13522;50.018;20.014;2023-05-07T11:46:50;99508.48;;;8.37;100.00
25664;BME280;13522;50.018;20.014;2023-05-07T11:50:07;99518.39;;;8.46;100.00
25664;BME280;13522;50.018;20.014;2023-05-07T11:53:20;99525.16;;;8.50;100.00
25664;BME280;13522;50.018;20.014;2023-05-07T11:56:36;99530.69;;;8.47;100.00
25664;BME280;13522;50.018;20.014;2023-05-07T11:59:49;99531.13;;;8.41;100.00
25664;BME280;13522;50.018;20.014;2023-05-07T12:03:07;99543.92;;;8.47;100.00
25664;BME280;13522;50.018;20.014;2023-05-07T12:06:20;99539.48;;;8.47;100.00
25664;BME280;13522;50.018;20.014;2023-05-07T12:09:35;99540.22;;;8.49;100.00
25664;BME280;13522;50.018;20.014;2023-05-07T12:12:48;99548.55;;;8.56;100.00
25664;BME280;13522;50.018;20.014;2023-05-07T12:16:01;99546.87;;;8.55;100.00
25664;BME280;13522;50.018;20.014;2023-05-07T12:19:15;99542.42;;;8.55;100.00
25664;BME280;13522;50.018;20.014;2023-05-07T12:22:28;99541.13;;;8.61;100.00
25664;BME280;13522;50.018;20.014;2023-05-07T12:25:41;99547.52;;;8.46;100.00
25664;BME280;13522;50.018;20.014;2023-05-07T12:28:54;99554.81;;;8.55;100.00
25664;BME280;13522;50.018;20.014;2023-05-07T12:32:07;99551.10;;;8.57;100.00
25664;BME280;13522;50.018;20.014;2023-05-07T12:35:35;99554.92;;;8.53;100.00
25664;BME280;13522;50.018;20.014;2023-05-07T12:38:51;99550.45;;;8.54;100.00
25664;BME280;13522;50.018;20.014;2023-05-07T12:42:04;99559.05;;;8.57;100.00
25664;BME280;13522;50.018;20.014;2023-05-07T12:45:17;99558.63;;;8.51;100.00
25664;BME280;13522;50.018;20.014;2023-05-07T12:48:29;99561.28;;;8.51;100.00
25664;BME280;13522;50.018;20.014;2023-05-07T12:51:42;99562.02;;;8.53;100.00
25664;BME280;13522;50.018;20.014;2023-05-07T12:54:54;99567.48;;;8.62;100.00
25664;BME280;13522;50.018;20.014;2023-05-07T12:58:06;99566.25;;;8.55;100.00
25664;BME280;13522;50.018;20.014;2023-05-07T13:01:18;99567.31;;;8.53;100.00
25664;BME280;13522;50.018;20.014;2023-05-07T13:04:31;99565.08;;;8.59;100.00
25664;BME280;13522;50.018;20.014;2023-05-07T13:07:53;99568.05;;;8.55;100.00
25664;BME280;13522;50.018;20.014;2023-05-07T13:11:06;99574.20;;;8.55;100.00
25664;BME280;13522;50.018;20.014;2023-05-07T13:14:19;99572.48;;;8.54;100.00
25664;BME280;13522;50.018;20.014;2023-05-07T13:17:31;99579.81;;;8.51;100.00
25664;BME280;13522;50.018;20.014;2023-05-07T13:20:43;99572.81;;;8.50;100.00
25664;BME280;13522;50.018;20.014;2023-05-07T13:23:56;99574.95;;;8.45;100.00
25664;BME280;13522;50.018;20.014;2023-05-07T13:27:08;99582.58;;;8.49;100.00
25664;BME280;13522;50.018;20.014;2023-05-07T13:30:21;99576.48;;;8.60;100.00
25664;BME280;13522;50.018;20.014;2023-05-07T13:33:34;99571.63;;;8.54;100.00
25664;BME280;13522;50.018;20.014;2023-05-07T13:36:46;99572.66;;;8.64;100.00
25664;BME280;13522;50.018;20.014;2023-05-07T13:39:58;99586.64;;;8.66;100.00
25664;BME280;13522;50.018;20.014;2023-05-07T13:43:10;99585.91;;;8.64;100.00
25664;BME280;13522;50.018;20.014;2023-05-07T13:46:23;99581.92;;;8.46;100.00
25664;BME280;13522;50.018;20.014;2023-05-07T13:49:36;99585.48;;;8.34;100.00
25664;BME280;13522;50.018;20.014;2023-05-07T13:52:48;99585.25;;;8.37;100.00
25664;BME280;13522;50.018;20.014;2023-05-07T13:56:01;99588.52;;;8.40;100.00
25664;BME280;13522;50.018;20.014;2023-05-07T13:59:13;99585.55;;;8.45;100.00
25664;BME280;13522;50.018;20.014;2023-05-07T14:02:26;99592.95;;;8.40;100.00
25664;BME280;13522;50.018;20.014;2023-05-07T14:05:38;99594.78;;;8.39;100.00
25664;BME280;13522;50.018;20.014;2023-05-07T14:08:53;99597.74;;;8.35;100.00
25664;BME280;13522;50.018;20.014;2023-05-07T14:12:07;99588.96;;;8.22;100.00
25664;BME280;13522;50.018;20.014;2023-05-07T14:15:20;99606.53;;;8.35;100.00
25664;BME280;13522;50.018;20.014;2023-05-07T14:18:33;99595.59;;;8.40;100.00
25664;BME280;13522;50.018;20.014;2023-05-07T14:21:45;99605.98;;;8.43;100.00
25664;BME280;13522;50.018;20.014;2023-05-07T14:24:58;99609.57;;;8.42;100.00
25664;BME280;13522;50.018;20.014;2023-05-07T14:28:12;99611.05;;;8.46;100.00
25664;BME280;13522;50.018;20.014;2023-05-07T14:31:24;99620.58;;;8.48;100.00
25664;BME280;13522;50.018;20.014;2023-05-07T14:34:37;99618.25;;;8.44;100.00
25664;BME280;13522;50.018;20.014;2023-05-07T14:37:49;99628.84;;;8.44;100.00
25664;BME280;13522;50.018;20.014;2023-05-07T14:41:02;99624.40;;;8.44;100.00
25664;BME280;13522;50.018;20.014;2023-05-07T14:44:14;99627.91;;;8.45;100.00
25664;BME280;13522;50.018;20.014;2023-05-07T14:47:26;99628.52;;;8.48;100.00
25664;BME280;13522;50.018;20.014;2023-05-07T14:50:39;99623.96;;;8.50;100.00
25664;BME280;13522;50.018;20.014;2023-05-07T14:53:52;99634.44;;;8.52;100.00
25664;BME280;13522;50.018;20.014;2023-05-07T14:57:06;99633.94;;;8.47;100.00
25664;BME280;13522;50.018;20.014;2023-05-07T15:00:21;99647.36;;;8.56;100.00
25664;BME280;13522;50.018;20.014;2023-05-07T15:03:34;99647.59;;;8.41;100.00
25664;BME280;13522;50.018;20.014;2023-05-07T15:06:47;99640.59;;;8.40;100.00
25664;BME280;13522;50.018;20.014;2023-05-07T15:10:00;99642.42;;;8.39;100.00
25664;BME280;13522;50.018;20.014;2023-05-07T15:13:13;99641.56;;;8.39;100.00
25664;BME280;13522;50.018;20.014;2023-05-07T15:16:25;99647.29;;;8.33;100.00
25664;BME280;13522;50.018;20.014;2023-05-07T15:19:38;99642.00;;;8.33;100.00
25664;BME280;13522;50.018;20.014;2023-05-07T15:22:51;99647.41;;;8.31;100.00
25664;BME280;13522;50.018;20.014;2023-05-07T15:26:05;99654.48;;;8.31;100.00
25664;BME280;13522;50.018;20.014;2023-05-07T15:29:17;99654.99;;;8.11;100.00
25664;BME280;13522;50.018;20.014;2023-05-07T15:32:31;99653.93;;;8.01;100.00
25664;BME280;13522;50.018;20.014;2023-05-07T15:35:43;99651.30;;;7.88;100.00
25664;BME280;13522;50.018;20.014;2023-05-07T15:38:56;99659.53;;;7.83;100.00
25664;BME280;13522;50.018;20.014;2023-05-07T15:42:10;99665.98;;;7.79;100.00
25664;BME280;13522;50.018;20.014;2023-05-07T15:45:23;99667.14;;;7.75;100.00
25664;BME280;13522;50.018;20.014;2023-05-07T15:48:36;99674.36;;;7.86;100.00
25664;BME280;13522;50.018;20.014;2023-05-07T15:51:49;99656.78;;;7.72;100.00
25664;BME280;13522;50.018;20.014;2023-05-07T15:55:03;99669.78;;;7.75;100.00
25664;BME280;13522;50.018;20.014;2023-05-07T15:58:17;99664.50;;;7.75;100.00
25664;BME280;13522;50.018;20.014;2023-05-07T16:01:29;99666.92;;;7.78;100.00
25664;BME280;13522;50.018;20.014;2023-05-07T16:04:42;99666.50;;;7.84;100.00
25664;BME280;13522;50.018;20.014;2023-05-07T16:07:55;99670.30;;;7.80;100.00
25664;BME280;13522;50.018;20.014;2023-05-07T16:11:07;99664.59;;;7.86;100.00
25664;BME280;13522;50.018;20.014;2023-05-07T16:14:19;99674.44;;;7.84;100.00
25664;BME280;13522;50.018;20.014;2023-05-07T16:17:32;99672.76;;;7.83;100.00
25664;BME280;13522;50.018;20.014;2023-05-07T16:20:45;99672.43;;;7.75;100.00
25664;BME280;13522;50.018;20.014;2023-05-07T16:23:57;99679.39;;;7.76;100.00
25664;BME280;13522;50.018;20.014;2023-05-07T16:27:10;99678.98;;;7.82;100.00
25664;BME280;13522;50.018;20.014;2023-05-07T16:30:22;99684.38;;;7.81;100.00
25664;BME280;13522;50.018;20.014;2023-05-07T16:33:35;99679.62;;;7.73;100.00
25664;BME280;13522;50.018;20.014;2023-05-07T16:36:47;99679.39;;;7.76;100.00
25664;BME280;13522;50.018;20.014;2023-05-07T16:40:01;99680.58;;;7.72;100.00
25664;BME280;13522;50.018;20.014;2023-05-07T16:43:15;99680.58;;;7.72;100.00
25664;BME280;13522;50.018;20.014;2023-05-07T16:46:27;99684.68;;;7.76;100.00
25664;BME280;13522;50.018;20.014;2023-05-07T16:49:40;99686.80;;;7.71;100.00
25664;BME280;13522;50.018;20.014;2023-05-07T16:52:52;99687.66;;;7.72;100.00
25664;BME280;13522;50.018;20.014;2023-05-07T16:56:07;99689.33;;;7.60;100.00
25664;BME280;13522;50.018;20.014;2023-05-07T16:59:19;99694.80;;;7.57;100.00
25664;BME280;13522;50.018;20.014;2023-05-07T17:02:33;99696.52;;;7.58;100.00